createdAt,value
2018-02-16T00:01:14.635Z,92.60
2018-02-16T00:03:42.737Z,92.30
2018-02-16T00:06:10.857Z,92.30
2018-02-16T00:08:39.970Z,92.60
2018-02-16T00:11:08.041Z,92.90
2018-02-16T00:13:36.097Z,93.00
2018-02-16T00:16:04.743Z,92.60
2018-02-16T00:18:32.838Z,92.60
2018-02-16T00:21:01.655Z,92.90
2018-02-16T00:23:29.824Z,92.90
2018-02-16T00:25:58.643Z,93.20
2018-02-16T00:28:26.702Z,93.10
2018-02-16T00:30:55.903Z,93.10
2018-02-16T00:33:23.955Z,93.00
2018-02-16T00:35:52.014Z,93.30
2018-02-16T00:38:20.050Z,92.70
2018-02-16T00:40:48.120Z,92.60
2018-02-16T00:43:16.181Z,92.50
2018-02-16T00:45:44.256Z,92.60
2018-02-16T00:48:12.357Z,92.30
2018-02-16T00:50:40.445Z,92.20
2018-02-16T00:53:08.486Z,92.20
2018-02-16T00:55:36.530Z,92.30
2018-02-16T00:58:04.593Z,92.30
2018-02-16T01:00:32.645Z,92.40
2018-02-16T01:03:00.714Z,92.70
2018-02-16T01:05:28.805Z,92.80
2018-02-16T01:07:56.864Z,93.00
2018-02-16T01:10:24.924Z,92.60
2018-02-16T01:12:52.989Z,92.70
2018-02-16T01:15:21.033Z,92.60
2018-02-16T01:17:49.103Z,92.70
2018-02-16T01:20:17.920Z,92.70
2018-02-16T01:22:46.007Z,92.60
2018-02-16T01:25:14.106Z,92.80
2018-02-16T01:27:42.172Z,93.10
2018-02-16T01:30:10.228Z,93.20
2018-02-16T01:32:38.282Z,93.20
2018-02-16T01:35:07.276Z,93.50
2018-02-16T01:37:35.349Z,93.70
2018-02-16T01:40:03.427Z,93.30
2018-02-16T01:42:31.527Z,93.20
2018-02-16T01:44:59.593Z,93.40
2018-02-16T01:47:27.653Z,93.50
2018-02-16T01:50:04.552Z,93.70
2018-02-16T01:52:32.625Z,94.00
2018-02-16T01:55:01.464Z,94.30
2018-02-16T01:57:29.512Z,94.30
2018-02-16T01:59:57.573Z,94.20
2018-02-16T02:02:25.629Z,94.30
2018-02-16T02:04:53.742Z,94.30
2018-02-16T02:07:21.807Z,94.40
2018-02-16T02:09:49.884Z,94.40
2018-02-16T02:12:17.955Z,94.50
2018-02-16T02:14:46.014Z,94.70
2018-02-16T02:17:14.084Z,94.50
2018-02-16T02:19:42.138Z,94.20
2018-02-16T02:22:10.288Z,94.00
2018-02-16T02:24:38.328Z,94.30
2018-02-16T02:27:07.157Z,93.90
2018-02-16T02:29:35.231Z,93.90
2018-02-16T02:32:03.305Z,94.00
2018-02-16T02:34:31.409Z,93.90
2018-02-16T02:36:59.450Z,93.50
2018-02-16T02:39:28.292Z,93.10
2018-02-16T02:41:56.410Z,93.00
2018-02-16T02:44:24.450Z,92.70
2018-02-16T02:46:52.559Z,93.20
2018-02-16T02:49:20.610Z,93.60
2018-02-16T02:51:48.674Z,93.20
2018-02-16T02:54:17.539Z,93.30
2018-02-16T02:56:45.569Z,93.30
2018-02-16T02:59:13.660Z,93.40
2018-02-16T03:01:41.745Z,93.50
2018-02-16T03:04:09.797Z,93.40
2018-02-16T03:06:37.866Z,93.40
2018-02-16T03:09:05.965Z,93.50
2018-02-16T03:11:34.019Z,93.90
2018-02-16T03:14:02.070Z,94.10
2018-02-16T03:16:30.194Z,94.20
2018-02-16T03:18:58.266Z,94.30
2018-02-16T03:21:26.314Z,94.40
2018-02-16T03:23:54.376Z,94.40
2018-02-16T03:26:23.214Z,94.40
2018-02-16T03:28:52.023Z,94.30
2018-02-16T03:31:20.096Z,94.10
2018-02-16T03:33:48.229Z,94.10
2018-02-16T03:36:16.287Z,93.80
2018-02-16T03:38:44.324Z,93.70
2018-02-16T03:41:12.583Z,93.80
2018-02-16T03:43:40.643Z,93.80
2018-02-16T03:46:08.731Z,93.70
2018-02-16T03:48:36.788Z,93.70
2018-02-16T03:51:04.841Z,93.60
2018-02-16T03:53:33.653Z,93.60
2018-02-16T03:56:01.712Z,93.60
2018-02-16T03:58:29.751Z,93.60
2018-02-16T04:00:57.817Z,93.50
2018-02-16T04:03:25.859Z,93.50
2018-02-16T04:05:54.700Z,93.60
2018-02-16T04:08:22.763Z,93.50
2018-02-16T04:10:50.828Z,93.50
2018-02-16T04:13:19.646Z,92.90
2018-02-16T04:15:47.854Z,92.90
2018-02-16T04:18:15.972Z,92.90
2018-02-16T04:20:44.030Z,92.70
2018-02-16T04:23:12.068Z,92.60
2018-02-16T04:25:40.116Z,92.60
2018-02-16T04:28:08.176Z,92.80
2018-02-16T04:30:36.337Z,92.80
2018-02-16T04:33:04.452Z,93.00
2018-02-16T04:35:32.502Z,92.80
2018-02-16T04:38:00.557Z,92.50
2018-02-16T04:40:28.590Z,92.50
2018-02-16T04:42:56.724Z,92.60
2018-02-16T04:45:25.113Z,92.70
2018-02-16T04:47:53.158Z,92.40
2018-02-16T04:50:21.970Z,92.80
2018-02-16T04:52:50.030Z,92.70
2018-02-16T04:55:18.096Z,92.90
2018-02-16T04:57:46.140Z,92.60
2018-02-16T05:00:15.280Z,92.50
2018-02-16T05:02:43.288Z,92.40
2018-02-16T05:05:11.334Z,92.50
2018-02-16T05:07:40.148Z,92.70
2018-02-16T05:10:08.202Z,92.60
2018-02-16T05:12:36.326Z,92.90
2018-02-16T05:15:04.362Z,93.00
2018-02-16T05:17:32.418Z,92.80
2018-02-16T05:20:00.461Z,92.90
2018-02-16T05:22:29.281Z,92.60
2018-02-16T05:24:57.329Z,92.60
2018-02-16T05:27:26.147Z,93.00
2018-02-16T05:29:54.207Z,92.90
2018-02-16T05:32:22.267Z,92.70
2018-02-16T05:34:50.332Z,92.60
2018-02-16T05:37:18.523Z,92.40
2018-02-16T05:39:46.588Z,92.30
2018-02-16T05:42:14.624Z,92.40
2018-02-16T05:44:42.667Z,92.60
2018-02-16T05:47:10.764Z,92.70
2018-02-16T05:49:38.819Z,92.70
2018-02-16T05:52:06.858Z,92.90
2018-02-16T05:54:34.906Z,93.00
2018-02-16T05:57:03.059Z,92.80
2018-02-16T05:59:31.090Z,92.50
2018-02-16T06:01:59.146Z,92.60
2018-02-16T06:04:27.196Z,92.70
2018-02-16T06:06:56.010Z,92.60
2018-02-16T06:09:24.060Z,92.50
2018-02-16T06:11:52.111Z,92.30
2018-02-16T06:14:20.165Z,92.20
2018-02-16T06:16:48.231Z,92.40
2018-02-16T06:19:16.367Z,92.50
2018-02-16T06:21:44.438Z,92.20
2018-02-16T06:24:12.487Z,92.20
2018-02-16T06:26:40.522Z,92.10
2018-02-16T06:29:08.581Z,92.20
2018-02-16T06:31:36.629Z,92.30
2018-02-16T06:34:05.455Z,92.50
2018-02-16T06:36:33.594Z,92.50
2018-02-16T06:39:01.647Z,92.40
2018-02-16T06:41:30.524Z,92.40
2018-02-16T06:43:58.596Z,92.30
2018-02-16T06:46:26.627Z,92.30
2018-02-16T06:48:54.666Z,92.50
2018-02-16T06:51:22.705Z,92.60
2018-02-16T06:53:50.788Z,92.40
2018-02-16T06:56:18.959Z,92.40
2018-02-16T06:58:47.020Z,92.40
2018-02-16T07:01:15.088Z,92.50
2018-02-16T07:03:43.153Z,92.60
2018-02-16T07:06:11.224Z,92.60
2018-02-16T07:08:40.035Z,92.20
2018-02-16T07:11:08.102Z,92.20
2018-02-16T07:13:37.848Z,92.40
2018-02-16T07:16:05.895Z,92.40
2018-02-16T07:18:33.946Z,92.00
2018-02-16T07:21:02.035Z,92.00
2018-02-16T07:23:30.421Z,92.20
2018-02-16T07:25:58.457Z,92.10
2018-02-16T07:28:27.271Z,92.30
2018-02-16T07:30:55.324Z,92.20
2018-02-16T07:33:24.151Z,92.30
2018-02-16T07:35:52.209Z,92.20
2018-02-16T07:38:21.032Z,92.80
2018-02-16T07:40:49.081Z,92.50
2018-02-16T07:43:17.142Z,92.60
2018-02-16T07:45:45.187Z,92.60
2018-02-16T07:48:13.237Z,92.80
2018-02-16T07:50:41.283Z,92.80
2018-02-16T07:53:09.356Z,92.80
2018-02-16T07:55:37.452Z,92.80
2018-02-16T07:58:05.651Z,92.90
2018-02-16T08:00:33.711Z,93.00
2018-02-16T08:03:01.760Z,92.60
2018-02-16T08:05:30.626Z,92.20
2018-02-16T08:07:58.680Z,92.20
2018-02-16T08:10:27.503Z,92.20
2018-02-16T08:12:55.621Z,92.20
2018-02-16T08:15:23.646Z,92.30
2018-02-16T08:17:51.711Z,92.40
2018-02-16T08:20:19.783Z,92.30
2018-02-16T08:22:48.632Z,92.30
2018-02-16T08:25:16.696Z,92.30
2018-02-16T08:27:44.763Z,92.10
2018-02-16T08:30:12.840Z,91.90
2018-02-16T08:32:40.908Z,91.60
2018-02-16T08:35:09.737Z,91.10
2018-02-16T08:37:37.804Z,91.00
2018-02-16T08:40:05.964Z,90.90
2018-02-16T08:42:35.171Z,91.20
2018-02-16T08:45:03.226Z,90.90
2018-02-16T08:47:31.291Z,90.50
2018-02-16T08:49:59.348Z,89.80
2018-02-16T08:52:28.228Z,90.30
2018-02-16T08:54:56.304Z,90.30
2018-02-16T08:57:24.340Z,90.40
2018-02-16T08:59:53.205Z,90.10
2018-02-16T09:02:22.045Z,91.00
2018-02-16T09:04:50.881Z,91.20
2018-02-16T09:07:18.924Z,91.20
2018-02-16T09:09:46.962Z,90.70
2018-02-16T09:12:15.014Z,90.80
2018-02-16T09:14:43.069Z,90.20
2018-02-16T09:17:11.157Z,90.60
2018-02-16T09:19:39.207Z,90.80
2018-02-16T09:22:08.125Z,90.70
2018-02-16T09:24:38.687Z,91.10
2018-02-16T09:27:06.836Z,91.00
2018-02-16T09:29:35.650Z,91.40
2018-02-16T09:32:03.695Z,91.30
2018-02-16T09:34:31.753Z,91.10
2018-02-16T09:36:59.811Z,91.60
2018-02-16T09:39:29.149Z,91.00
2018-02-16T09:41:57.222Z,91.60
2018-02-16T09:44:25.310Z,91.90
2018-02-16T09:46:53.349Z,91.80
2018-02-16T09:49:22.173Z,91.90
2018-02-16T09:51:50.240Z,91.90
2018-02-16T09:54:19.070Z,91.20
2018-02-16T09:56:47.128Z,91.20
2018-02-16T09:59:15.195Z,91.00
2018-02-16T10:01:43.248Z,91.00
2018-02-16T10:04:11.308Z,90.60
2018-02-16T10:06:39.379Z,90.30
2018-02-16T10:09:07.501Z,89.90
2018-02-16T10:11:35.558Z,90.30
2018-02-16T10:14:03.623Z,90.20
2018-02-16T10:16:31.662Z,89.20
2018-02-16T10:18:59.733Z,89.20
2018-02-16T10:21:27.770Z,88.80
2018-02-16T10:23:55.833Z,88.90
2018-02-16T10:26:24.665Z,86.90
2018-02-16T10:28:52.739Z,86.90
2018-02-16T10:31:20.811Z,88.10
2018-02-16T10:33:49.623Z,84.90
2018-02-16T10:36:17.675Z,84.80
2018-02-16T10:38:45.737Z,85.40
2018-02-16T10:41:13.779Z,84.50
2018-02-16T10:43:41.829Z,83.20
2018-02-16T10:46:10.649Z,80.50
2018-02-16T10:48:38.774Z,79.90
2018-02-16T10:51:06.838Z,77.20
2018-02-16T10:53:34.904Z,77.00
2018-02-16T10:56:02.964Z,72.80
2018-02-16T10:58:31.784Z,67.10
2018-02-16T11:01:05.440Z,67.10
2018-02-16T11:03:38.394Z,64.90
2018-02-16T11:06:13.052Z,64.30
2018-02-16T11:08:55.591Z,64.20
2018-02-16T11:11:23.665Z,65.40
2018-02-16T11:13:51.763Z,69.00
2018-02-16T11:16:19.817Z,70.90
2018-02-16T11:18:48.048Z,70.90
2018-02-16T11:21:16.101Z,74.00
2018-02-16T11:23:44.172Z,72.70
2018-02-16T11:26:12.304Z,75.20
2018-02-16T11:28:40.350Z,73.50
2018-02-16T11:31:08.394Z,74.10
2018-02-16T11:33:36.454Z,71.70
2018-02-16T11:36:04.501Z,66.50
2018-02-16T11:38:32.560Z,61.10
2018-02-16T11:41:07.661Z,55.80
2018-02-16T11:43:35.733Z,46.30
2018-02-16T11:46:03.795Z,41.90
2018-02-16T11:48:31.859Z,41.50
2018-02-16T11:50:59.943Z,42.20
2018-02-16T11:53:27.999Z,42.70
2018-02-16T11:55:56.063Z,39.90
2018-02-16T11:58:24.127Z,40.50
2018-02-16T12:00:52.193Z,42.10
2018-02-16T12:03:20.238Z,43.90
2018-02-16T12:05:49.085Z,56.30
2018-02-16T12:08:17.176Z,56.90
2018-02-16T12:10:45.242Z,57.10
2018-02-16T12:13:13.286Z,59.40
2018-02-16T12:15:41.362Z,63.20
2018-02-16T12:18:09.435Z,65.80
2018-02-16T12:20:37.500Z,66.70
2018-02-16T12:23:05.560Z,68.00
2018-02-16T12:25:33.652Z,69.20
2018-02-16T12:28:01.680Z,69.50
2018-02-16T12:30:30.506Z,70.00
2018-02-16T12:32:59.359Z,69.90
2018-02-16T12:35:27.403Z,69.50
2018-02-16T12:37:55.556Z,69.80
2018-02-16T12:40:23.664Z,70.80
2018-02-16T12:42:51.739Z,71.30
2018-02-16T12:45:20.546Z,72.80
2018-02-16T12:47:49.369Z,71.60
2018-02-16T12:50:17.411Z,71.60
2018-02-16T12:52:46.210Z,71.30
2018-02-16T12:55:15.030Z,71.20
2018-02-16T12:57:44.023Z,69.80
2018-02-16T13:00:12.860Z,69.60
2018-02-16T13:02:40.930Z,69.50
2018-02-16T13:05:08.978Z,67.70
2018-02-16T13:07:37.026Z,69.80
2018-02-16T13:10:05.176Z,67.90
2018-02-16T13:12:33.274Z,68.90
2018-02-16T13:15:01.342Z,68.70
2018-02-16T13:17:29.390Z,69.30
2018-02-16T13:19:57.440Z,71.30
2018-02-16T13:22:25.557Z,71.60
2018-02-16T13:24:53.560Z,69.60
2018-02-16T13:27:22.374Z,70.90
2018-02-16T13:29:51.184Z,71.90
2018-02-16T13:32:19.232Z,71.90
2018-02-16T13:34:47.274Z,70.60
2018-02-16T13:37:15.320Z,70.60
2018-02-16T13:39:43.410Z,70.20
2018-02-16T13:42:11.679Z,69.70
2018-02-16T13:44:40.482Z,66.20
2018-02-16T13:47:09.495Z,66.60
2018-02-16T13:49:37.536Z,66.50
2018-02-16T13:52:05.602Z,65.90
2018-02-16T13:54:33.866Z,65.90
2018-02-16T13:57:01.932Z,67.40
2018-02-16T13:59:30.781Z,68.20
2018-02-16T14:01:58.818Z,68.20
2018-02-16T14:04:27.630Z,65.60
2018-02-16T14:06:55.676Z,65.60
2018-02-16T14:09:23.705Z,65.50
2018-02-16T14:11:51.751Z,63.00
2018-02-16T14:14:20.578Z,64.70
2018-02-16T14:16:48.620Z,64.70
2018-02-16T14:19:16.684Z,64.80
2018-02-16T14:21:44.757Z,64.30
2018-02-16T14:24:12.828Z,62.50
2018-02-16T14:26:40.893Z,61.80
2018-02-16T14:29:09.711Z,60.60
2018-02-16T14:31:37.764Z,60.50
2018-02-16T14:34:05.801Z,63.20
2018-02-16T14:36:33.872Z,64.50
2018-02-16T14:39:01.924Z,64.80
2018-02-16T14:41:29.960Z,65.40
2018-02-16T14:43:58.008Z,63.70
2018-02-16T14:46:26.054Z,64.80
2018-02-16T14:48:54.880Z,66.00
2018-02-16T14:51:22.932Z,65.90
2018-02-16T14:53:51.028Z,66.10
2018-02-16T14:56:19.054Z,66.60
2018-02-16T14:58:47.106Z,64.50
2018-02-16T15:01:15.149Z,67.00
2018-02-16T15:03:43.199Z,69.00
2018-02-16T15:06:11.247Z,69.40
2018-02-16T15:08:39.299Z,69.50
2018-02-16T15:11:07.401Z,70.60
2018-02-16T15:13:35.458Z,70.30
2018-02-16T15:16:03.494Z,72.10
2018-02-16T15:18:31.572Z,71.30
2018-02-16T15:20:59.608Z,73.20
2018-02-16T15:23:27.704Z,73.80
2018-02-16T15:25:55.743Z,73.70
2018-02-16T15:28:24.021Z,73.90
2018-02-16T15:30:52.080Z,74.10
2018-02-16T15:33:20.913Z,74.70
2018-02-16T15:35:48.972Z,74.70
2018-02-16T15:38:17.029Z,74.70
2018-02-16T15:40:44.574Z,73.80
2018-02-16T15:43:12.114Z,74.30
2018-02-16T15:45:39.651Z,73.00
2018-02-16T15:48:08.480Z,74.40
2018-02-16T15:50:36.558Z,74.30
2018-02-16T15:53:04.617Z,74.00
2018-02-16T15:55:32.682Z,74.50
2018-02-16T15:58:00.730Z,75.20
2018-02-16T16:00:28.790Z,75.50
2018-02-16T16:02:56.839Z,75.10
2018-02-16T16:05:24.879Z,76.10
2018-02-16T16:07:52.934Z,75.30
2018-02-16T16:10:20.992Z,74.10
2018-02-16T16:12:49.817Z,75.50
2018-02-16T16:15:17.868Z,76.00
2018-02-16T16:17:45.928Z,75.10
2018-02-16T16:20:13.989Z,75.10
2018-02-16T16:22:42.049Z,75.60
2018-02-16T16:25:10.102Z,75.40
2018-02-16T16:27:38.154Z,75.50
2018-02-16T16:30:06.213Z,76.50
2018-02-16T16:32:34.285Z,76.60
2018-02-16T16:35:02.334Z,77.20
2018-02-16T16:37:30.380Z,77.30
2018-02-16T16:39:58.433Z,76.80
2018-02-16T16:42:26.495Z,76.70
2018-02-16T16:44:55.314Z,77.80
2018-02-16T16:47:23.363Z,77.70
2018-02-16T16:49:51.875Z,77.70
2018-02-16T16:52:20.690Z,79.00
2018-02-16T16:54:48.752Z,78.90
2018-02-16T16:57:17.577Z,80.40
2018-02-16T16:59:45.614Z,80.30
2018-02-16T17:02:13.680Z,80.80
2018-02-16T17:04:41.746Z,81.20
2018-02-16T17:07:09.806Z,81.40
2018-02-16T17:09:37.880Z,81.30
2018-02-16T17:12:05.907Z,81.80
2018-02-16T17:14:33.947Z,82.70
2018-02-16T17:17:02.788Z,82.10
2018-02-16T17:19:30.834Z,82.00
2018-02-16T17:21:58.895Z,82.00
2018-02-16T17:24:26.967Z,82.60
2018-02-16T17:26:55.062Z,82.00
2018-02-16T17:29:23.117Z,80.70
2018-02-16T17:31:51.197Z,81.40
2018-02-16T17:34:19.281Z,79.00
2018-02-16T17:36:47.330Z,79.40
2018-02-16T17:39:15.388Z,78.60
2018-02-16T17:41:44.216Z,79.20
2018-02-16T17:44:12.278Z,79.20
2018-02-16T17:46:41.107Z,81.00
2018-02-16T17:49:09.154Z,80.90
2018-02-16T17:51:37.989Z,82.30
2018-02-16T17:54:06.048Z,82.20
2018-02-16T17:56:34.892Z,82.70
2018-02-16T17:59:02.949Z,82.70
2018-02-16T18:01:31.010Z,82.60
2018-02-16T18:03:59.855Z,81.90
2018-02-16T18:06:27.910Z,81.80
2018-02-16T18:08:55.963Z,82.60
2018-02-16T18:11:24.081Z,83.40
2018-02-16T18:13:52.143Z,83.00
2018-02-16T18:16:20.961Z,83.30
2018-02-16T18:18:49.035Z,83.30
2018-02-16T18:21:17.842Z,84.00
2018-02-16T18:23:47.528Z,84.30
2018-02-16T18:26:15.574Z,84.30
2018-02-16T18:28:43.635Z,84.50
2018-02-16T18:31:11.708Z,84.50
2018-02-16T18:33:40.554Z,85.20
2018-02-16T18:36:08.597Z,85.00
2018-02-16T18:38:37.506Z,85.30
2018-02-16T18:41:05.563Z,85.20
2018-02-16T18:43:33.619Z,84.70
2018-02-16T18:46:02.628Z,84.50
2018-02-16T18:48:30.687Z,84.20
2018-02-16T18:50:58.741Z,84.20
2018-02-16T18:53:27.299Z,84.30
2018-02-16T18:55:55.380Z,84.20
2018-02-16T18:58:23.407Z,84.30
2018-02-16T19:00:51.481Z,84.00
2018-02-16T19:03:20.308Z,84.10
2018-02-16T19:05:48.389Z,84.80
2018-02-16T19:08:17.409Z,83.40
2018-02-16T19:10:45.464Z,83.30
2018-02-16T19:13:13.687Z,83.00
2018-02-16T19:15:41.751Z,82.90
2018-02-16T19:18:09.988Z,82.90
2018-02-16T19:20:38.030Z,83.10
2018-02-16T19:23:06.128Z,83.70
2018-02-16T19:25:34.240Z,84.30
2018-02-16T19:28:02.299Z,84.20
2018-02-16T19:30:30.658Z,83.90
2018-02-16T19:32:58.788Z,83.80
2018-02-16T19:35:27.229Z,83.40
2018-02-16T19:37:55.308Z,83.40
2018-02-16T19:40:23.380Z,84.00
2018-02-16T19:42:52.191Z,83.90
2018-02-16T19:45:20.280Z,83.80
2018-02-16T19:47:48.744Z,83.80
2018-02-16T19:50:16.848Z,84.80
2018-02-16T19:52:45.003Z,84.50
2018-02-16T19:55:13.079Z,84.60
2018-02-16T19:57:41.173Z,84.90
2018-02-16T20:00:09.251Z,85.30
2018-02-16T20:02:37.299Z,86.10
2018-02-16T20:05:05.728Z,86.50
2018-02-16T20:07:33.852Z,86.50
2018-02-16T20:10:02.648Z,86.60
2018-02-16T20:12:30.710Z,86.40
2018-02-16T20:14:58.755Z,86.60
2018-02-16T20:17:27.260Z,86.40
2018-02-16T20:19:56.189Z,87.30
2018-02-16T20:22:24.540Z,87.30
2018-02-16T20:24:53.023Z,87.40
2018-02-16T20:27:21.500Z,86.70
2018-02-16T20:29:49.592Z,87.00
2018-02-16T20:32:17.660Z,87.40
2018-02-16T20:34:45.734Z,87.10
2018-02-16T20:37:13.801Z,86.90
2018-02-16T20:39:42.618Z,86.90
2018-02-16T20:42:10.991Z,86.90
2018-02-16T20:44:39.834Z,86.60
2018-02-16T20:47:07.954Z,86.60
2018-02-16T20:49:36.010Z,86.90
2018-02-16T20:52:04.095Z,86.10
2018-02-16T20:54:32.187Z,86.60
2018-02-16T20:57:00.240Z,86.40
2018-02-16T20:59:28.296Z,86.00
2018-02-16T21:01:57.128Z,86.10
2018-02-16T21:04:25.202Z,86.10
2018-02-16T21:06:53.274Z,86.50
2018-02-16T21:09:21.319Z,86.90
2018-02-16T21:11:49.406Z,86.50
2018-02-16T21:14:17.470Z,87.00
2018-02-16T21:16:45.575Z,87.10
2018-02-16T21:19:14.729Z,88.20
2018-02-16T21:21:42.841Z,88.20
2018-02-16T21:24:10.892Z,88.30
2018-02-16T21:26:38.958Z,88.40
2018-02-16T21:29:07.791Z,88.90
2018-02-16T21:31:35.865Z,88.80
2018-02-16T21:34:03.920Z,89.50
2018-02-16T21:36:31.966Z,90.10
2018-02-16T21:39:00.032Z,90.20
2018-02-16T21:41:28.088Z,90.20
2018-02-16T21:43:56.944Z,90.10
2018-02-16T21:46:25.008Z,90.10
2018-02-16T21:48:53.080Z,90.20
2018-02-16T21:51:21.896Z,90.10
2018-02-16T21:53:49.975Z,90.10
2018-02-16T21:56:18.032Z,90.10
2018-02-16T21:58:46.088Z,89.90
2018-02-16T22:01:14.922Z,89.70
2018-02-16T22:03:43.102Z,89.70
2018-02-16T22:06:11.218Z,89.10
2018-02-16T22:08:39.269Z,89.40
2018-02-16T22:11:07.353Z,89.10
2018-02-16T22:13:35.405Z,89.00
2018-02-16T22:16:03.487Z,88.90
2018-02-16T22:18:31.580Z,88.90
2018-02-16T22:21:00.459Z,88.90
2018-02-16T22:23:28.488Z,88.70
2018-02-16T22:25:56.544Z,88.60
2018-02-16T22:28:24.608Z,88.50
2018-02-16T22:30:52.650Z,88.30
2018-02-16T22:33:20.756Z,88.50
2018-02-16T22:35:48.814Z,88.00
2018-02-16T22:38:16.877Z,87.80
2018-02-16T22:40:45.725Z,86.90
2018-02-16T22:43:13.796Z,86.90
2018-02-16T22:45:41.850Z,86.70
2018-02-16T22:48:09.929Z,86.90
2018-02-16T22:50:38.013Z,87.20
2018-02-16T22:53:06.885Z,86.80
2018-02-16T22:55:34.924Z,86.70
2018-02-16T22:58:02.981Z,86.50
2018-02-16T23:00:31.815Z,86.10
2018-02-16T23:02:59.899Z,86.50
2018-02-16T23:05:27.960Z,85.60
2018-02-16T23:07:56.021Z,85.60
2018-02-16T23:10:24.096Z,85.80
2018-02-16T23:12:52.152Z,85.90
2018-02-16T23:15:20.714Z,86.00
2018-02-16T23:17:48.768Z,86.20
2018-02-16T23:20:17.616Z,86.40
2018-02-16T23:22:45.654Z,86.40
2018-02-16T23:25:14.564Z,87.00
2018-02-16T23:27:42.624Z,87.00
2018-02-16T23:30:10.674Z,86.40
2018-02-16T23:32:38.731Z,86.50
2018-02-16T23:35:06.824Z,86.90
2018-02-16T23:37:34.892Z,86.90
2018-02-16T23:40:02.964Z,87.10
2018-02-16T23:42:34.908Z,87.20
2018-02-16T23:45:02.950Z,87.20
2018-02-16T23:47:31.007Z,86.50
2018-02-16T23:49:59.069Z,87.00
2018-02-16T23:52:27.160Z,87.40
2018-02-16T23:54:55.233Z,87.80
2018-02-16T23:57:23.340Z,87.50
2018-02-16T23:59:51.409Z,88.50
